Terminal Aerodrome Forecast
Issued by NWS Cleveland, OH

Home | Current Version | Previous Version | Text Only | Print | Product List | Glossary Off
Versions: 1 2 3 4 5 6 7 8 9 10 11 12 13 14 15 16 17 18 19 20

000
FTUS41 KCLE 131100
TAFYNG
TAF
KYNG 131139Z 1312/1412 19010KT P6SM BKN080 WS020/22040KT
     FM131430 21015G25KT P6SM BKN050
     FM132300 21015KT P6SM SCT050 BKN200
     FM141000 19015G25KT P6SM SCT050 OVC100=

USA.gov is the U.S. government's official web portal to all federal, state and local government web resources and services.